Time;durP1;ratioP1;P1;durP2;ratioP2;P2;SDS_P1;SDS_P2;PMS_P1;PMS_P2;Temp;Humidity;BMP_temperature;BMP_pressure;BME280_temperature;BME280_humidity;BME280_pressure;Samples;Min_cycle;Max_cycle;Signal;HPM_P1;HPM_P2
2022/07/08 00:00:15;;;;;;;5.77;1.10;;;16.00;99.90;;;;;;5053186;28;20629;-76
2022/07/08 00:02:40;;;;;;;6.23;1.47;;;16.10;99.90;;;;;;5053203;28;20184;-76
2022/07/08 00:05:07;;;;;;;8.17;1.10;;;16.10;99.90;;;;;;5053437;28;20176;-76
2022/07/08 00:07:33;;;;;;;6.00;1.40;;;16.10;99.90;;;;;;5035135;28;20217;-76
2022/07/08 00:09:58;;;;;;;6.93;1.90;;;16.00;99.90;;;;;;5034829;28;20235;-76
2022/07/08 00:12:24;;;;;;;6.07;1.40;;;16.10;99.90;;;;;;5035133;28;20198;-77
2022/07/08 00:14:49;;;;;;;5.83;1.20;;;16.10;99.90;;;;;;5034642;28;20194;-76
2022/07/08 00:17:15;;;;;;;6.23;1.10;;;16.10;99.90;;;;;;5052529;28;20558;-76
2022/07/08 00:19:40;;;;;;;4.10;1.33;;;16.10;99.90;;;;;;5052543;28;20610;-76
2022/07/08 00:22:06;;;;;;;4.60;0.90;;;16.20;99.90;;;;;;5034659;28;20754;-77
2022/07/08 00:24:31;;;;;;;5.47;1.27;;;16.00;99.90;;;;;;5052566;28;20172;-76
2022/07/08 00:26:57;;;;;;;4.73;0.97;;;16.10;99.90;;;;;;5034597;28;20179;-76
2022/07/08 00:29:23;;;;;;;6.63;1.53;;;16.00;99.90;;;;;;5052528;28;20208;-76
2022/07/08 00:31:48;;;;;;;7.40;1.93;;;16.00;99.90;;;;;;5052905;28;20246;-76
2022/07/08 00:34:14;;;;;;;2.57;1.20;;;16.00;99.90;;;;;;5054264;28;20191;-77
2022/07/08 00:36:39;;;;;;;5.33;1.57;;;16.00;99.90;;;;;;5038380;28;20225;-76
2022/07/08 00:39:05;;;;;;;5.60;1.23;;;16.00;99.90;;;;;;5056144;28;20661;-76
2022/07/08 00:41:31;;;;;;;3.93;1.20;;;16.00;99.90;;;;;;5056337;28;20206;-76
2022/07/08 00:43:56;;;;;;;7.17;1.40;;;15.90;99.90;;;;;;5055885;28;20199;-76
2022/07/08 00:46:22;;;;;;;7.97;1.90;;;15.90;99.90;;;;;;5038140;28;20171;-76
2022/07/08 00:48:48;;;;;;;4.33;1.23;;;15.90;99.90;;;;;;5055971;28;20167;-76
2022/07/08 00:51:16;;;;;;;4.30;1.40;;;15.90;99.90;;;;;;5038019;28;20256;-77
2022/07/08 00:53:46;;;;;;;7.67;1.63;;;15.80;99.90;;;;;;5055812;28;20617;-76
2022/07/08 00:56:12;;;;;;;7.60;1.63;;;15.90;99.90;;;;;;5038102;28;20522;-75
2022/07/08 00:58:40;;;;;;;9.70;1.67;;;15.90;99.90;;;;;;5055822;28;20638;-76
2022/07/08 01:01:06;;;;;;;4.90;2.53;;;15.90;99.90;;;;;;5056093;28;20176;-77
2022/07/08 01:03:33;;;;;;;6.23;1.20;;;15.90;99.90;;;;;;5037803;28;20244;-76
2022/07/08 01:05:59;;;;;;;5.70;1.53;;;15.90;99.90;;;;;;5037731;28;20179;-76
2022/07/08 01:08:25;;;;;;;2.97;0.97;;;15.90;99.90;;;;;;5037724;28;20180;-77
2022/07/08 01:10:51;;;;;;;7.77;1.50;;;15.90;99.90;;;;;;5037755;28;20222;-76
2022/07/08 01:13:18;;;;;;;4.53;1.27;;;15.90;99.90;;;;;;5055485;28;20264;-76
2022/07/08 01:15:44;;;;;;;2.67;1.23;;;15.90;99.90;;;;;;5055518;28;20254;-76
2022/07/08 01:18:19;;;;;;;8.20;1.40;;;15.90;99.90;;;;;;5055618;28;20176;-76
2022/07/08 01:20:47;;;;;;;4.00;1.30;;;15.90;99.90;;;;;;5055474;28;20155;-75
2022/07/08 01:23:13;;;;;;;5.17;1.50;;;15.90;99.90;;;;;;5055311;28;20192;-76
2022/07/08 01:25:38;;;;;;;5.13;0.83;;;15.90;99.90;;;;;;5037405;28;20225;-75
2022/07/08 01:28:05;;;;;;;8.37;1.33;;;15.90;99.90;;;;;;5055252;28;20245;-77
2022/07/08 01:30:30;;;;;;;5.13;1.17;;;15.90;99.90;;;;;;5055165;28;20211;-76
2022/07/08 01:32:56;;;;;;;5.93;0.97;;;15.90;99.90;;;;;;5055010;28;20191;-77
2022/07/08 01:35:21;;;;;;;4.63;1.53;;;15.80;99.90;;;;;;5055127;28;20175;-76
2022/07/08 01:37:47;;;;;;;6.30;1.67;;;15.90;99.90;;;;;;5037170;28;20179;-76
2022/07/08 01:40:13;;;;;;;6.27;1.00;;;15.80;99.90;;;;;;5037248;28;20555;-76
2022/07/08 01:42:38;;;;;;;4.30;1.30;;;15.80;99.90;;;;;;5055007;28;20207;-76
2022/07/08 01:45:04;;;;;;;4.60;1.00;;;15.80;99.90;;;;;;5036040;28;20549;-76
2022/07/08 01:47:30;;;;;;;7.30;1.40;;;15.80;99.90;;;;;;5036960;28;20183;-76
2022/07/08 01:49:55;;;;;;;4.13;1.33;;;15.80;99.90;;;;;;5054730;28;20199;-76
2022/07/08 01:52:21;;;;;;;8.63;1.40;;;15.80;99.90;;;;;;5036841;28;20716;-76
2022/07/08 01:54:46;;;;;;;6.57;1.50;;;15.80;99.90;;;;;;5036896;28;20178;-77
2022/07/08 01:57:15;;;;;;;7.63;1.50;;;15.80;99.90;;;;;;5054700;28;20207;-76
2022/07/08 01:59:45;;;;;;;4.97;1.43;;;15.80;99.90;;;;;;5054678;28;20172;-77
2022/07/08 02:02:12;;;;;;;6.13;1.63;;;15.70;99.90;;;;;;5054620;28;20191;-76
2022/07/08 02:04:38;;;;;;;4.40;1.17;;;15.70;99.90;;;;;;5054604;28;20649;-76
2022/07/08 02:07:04;;;;;;;2.27;1.10;;;15.70;99.90;;;;;;5036625;28;20180;-76
2022/07/08 02:09:30;;;;;;;6.60;1.70;;;15.80;99.90;;;;;;5054448;28;20199;-76
2022/07/08 02:14:40;;;;;;;8.40;1.60;;;15.70;99.90;;;;;;5054547;28;20159;-76
2022/07/08 02:17:06;;;;;;;6.00;1.30;;;15.80;99.90;;;;;;5054326;28;20199;-77
2022/07/08 02:19:33;;;;;;;7.43;1.23;;;15.90;99.90;;;;;;5036453;28;20171;-76
2022/07/08 02:21:59;;;;;;;3.17;1.37;;;15.70;99.90;;;;;;5054201;28;20168;-77
2022/07/08 02:24:24;;;;;;;7.40;1.47;;;15.70;99.90;;;;;;5054131;28;20699;-76
2022/07/08 02:26:50;;;;;;;2.57;1.17;;;15.70;99.90;;;;;;5054188;28;20168;-77
2022/07/08 02:29:15;;;;;;;4.37;1.60;;;15.70;99.90;;;;;;5053998;28;20199;-76
2022/07/08 02:31:41;;;;;;;4.30;1.60;;;15.70;99.90;;;;;;5036101;28;20172;-77
2022/07/08 02:34:06;;;;;;;4.93;1.97;;;15.70;99.90;;;;;;5054146;28;20180;-76
2022/07/08 02:36:32;;;;;;;6.07;1.57;;;15.70;99.90;;;;;;5036109;28;20175;-76
2022/07/08 02:38:57;;;;;;;8.17;1.37;;;15.70;99.90;;;;;;5053868;28;20171;-77
2022/07/08 02:41:23;;;;;;;3.10;1.27;;;15.60;99.90;;;;;;5036044;28;20607;-76
2022/07/08 02:43:49;;;;;;;6.63;1.50;;;15.60;99.90;;;;;;5035806;28;20297;-76
2022/07/08 02:46:14;;;;;;;7.77;1.60;;;15.50;99.90;;;;;;5054019;28;20168;-76
2022/07/08 02:48:40;;;;;;;5.80;1.20;;;15.50;99.90;;;;;;5035800;28;20172;-76
2022/07/08 02:51:05;;;;;;;4.63;1.33;;;15.50;99.90;;;;;;5053565;28;20200;-76
2022/07/08 02:53:31;;;;;;;5.17;1.30;;;15.50;99.90;;;;;;5053496;28;20196;-77
2022/07/08 02:55:57;;;;;;;4.60;1.10;;;15.50;99.90;;;;;;5035623;28;20263;-76
2022/07/08 02:58:22;;;;;;;5.90;1.27;;;15.50;99.90;;;;;;5035596;28;20175;-76
2022/07/08 03:00:48;;;;;;;6.53;1.30;;;15.50;99.90;;;;;;5035631;28;20267;-76
2022/07/08 03:03:14;;;;;;;5.27;1.17;;;15.40;99.90;;;;;;5053311;28;20559;-76
2022/07/08 03:05:39;;;;;;;7.03;1.30;;;15.40;99.90;;;;;;5053469;28;20645;-76
2022/07/08 03:08:05;;;;;;;6.97;1.67;;;15.40;99.90;;;;;;5053317;28;20277;-76
2022/07/08 03:10:31;;;;;;;9.87;1.80;;;15.40;99.90;;;;;;5053240;28;20215;-75
2022/07/08 03:12:56;;;;;;;8.27;1.50;;;15.40;99.90;;;;;;5053330;28;20199;-76
2022/07/08 03:15:22;;;;;;;5.33;1.33;;;15.50;99.90;;;;;;5035357;28;20172;-76
2022/07/08 03:17:48;;;;;;;7.87;1.50;;;15.40;99.90;;;;;;5035379;28;20187;-76
2022/07/08 03:20:13;;;;;;;5.97;2.03;;;15.40;99.90;;;;;;5053205;28;20601;-76
2022/07/08 03:22:39;;;;;;;5.37;1.40;;;15.40;99.90;;;;;;5035216;28;20207;-76
2022/07/08 03:25:05;;;;;;;7.67;1.53;;;15.30;99.90;;;;;;5053097;28;20182;-77
2022/07/08 03:27:30;;;;;;;3.73;1.17;;;15.40;99.90;;;;;;5035243;28;20184;-76
2022/07/08 03:29:56;;;;;;;4.97;1.80;;;15.20;99.90;;;;;;5053056;28;20207;-76
2022/07/08 03:32:23;;;;;;;4.37;1.10;;;15.30;99.90;;;;;;5035108;28;20191;-76
2022/07/08 03:34:49;;;;;;;3.83;1.20;;;15.30;99.90;;;;;;5052999;28;20168;-76
2022/07/08 03:37:15;;;;;;;6.50;1.47;;;15.30;99.90;;;;;;5035073;28;20228;-76
2022/07/08 03:39:40;;;;;;;7.70;1.30;;;15.20;99.90;;;;;;5034992;28;20270;-76
2022/07/08 03:42:06;;;;;;;4.40;1.23;;;15.20;99.90;;;;;;5034828;28;20264;-76
2022/07/08 03:44:32;;;;;;;4.87;1.43;;;15.20;99.90;;;;;;5035349;28;20180;-75
2022/07/08 03:46:57;;;;;;;5.73;1.23;;;15.30;99.90;;;;;;5052915;28;20653;-76
2022/07/08 03:49:23;;;;;;;7.70;1.20;;;15.30;99.90;;;;;;5034876;28;20289;-76
2022/07/08 03:51:48;;;;;;;6.23;1.40;;;15.20;99.90;;;;;;5052731;28;20176;-76
2022/07/08 03:54:14;;;;;;;7.57;1.17;;;15.20;99.90;;;;;;5052767;28;20206;-76
2022/07/08 03:56:39;;;;;;;5.27;1.50;;;15.20;99.90;;;;;;5052764;28;20179;-76
2022/07/08 03:59:05;;;;;;;9.50;1.90;;;15.20;99.90;;;;;;5034811;28;20186;-76
2022/07/08 04:01:30;;;;;;;5.13;1.47;;;15.20;99.90;;;;;;5052741;28;20176;-76
2022/07/08 04:03:56;;;;;;;5.80;1.20;;;15.20;99.90;;;;;;5052661;28;20206;-76
2022/07/08 04:06:21;;;;;;;4.37;1.37;;;15.20;99.90;;;;;;5054134;28;20183;-76
2022/07/08 04:08:47;;;;;;;5.27;1.40;;;15.20;99.90;;;;;;5058247;28;20171;-76
2022/07/08 04:11:13;;;;;;;5.60;1.47;;;15.20;99.90;;;;;;5043367;28;20206;-76
2022/07/08 04:13:39;;;;;;;5.33;1.40;;;15.20;99.90;;;;;;5060324;28;20192;-76
2022/07/08 04:16:08;;;;;;;4.80;1.70;;;15.20;99.90;;;;;;5059911;28;20221;-76
2022/07/08 04:18:33;;;;;;;7.10;1.30;;;15.20;99.90;;;;;;5060052;28;20164;-76
2022/07/08 04:20:59;;;;;;;8.50;1.60;;;15.20;99.90;;;;;;5043211;28;20180;-76
2022/07/08 04:23:24;;;;;;;5.83;1.57;;;15.20;99.90;;;;;;5057059;28;20199;-77
2022/07/08 04:25:50;;;;;;;3.43;1.33;;;15.20;99.90;;;;;;5056452;28;20175;-77
2022/07/08 04:28:16;;;;;;;4.40;1.63;;;15.20;99.90;;;;;;5056627;28;20251;-76
2022/07/08 04:30:41;;;;;;;6.20;1.50;;;15.20;99.90;;;;;;5056795;28;20615;-76
2022/07/08 04:33:08;;;;;;;7.20;1.70;;;15.20;99.90;;;;;;5056095;28;20582;-76
2022/07/08 04:35:34;;;;;;;7.37;2.17;;;15.20;99.90;;;;;;5056783;28;20170;-76
2022/07/08 04:38:00;;;;;;;5.33;1.47;;;15.10;99.90;;;;;;5038685;28;20172;-77
2022/07/08 04:40:25;;;;;;;7.10;1.33;;;15.20;99.90;;;;;;5056544;28;20186;-76
2022/07/08 04:42:51;;;;;;;9.70;1.50;;;15.10;99.90;;;;;;5038365;28;20251;-76
2022/07/08 04:45:17;;;;;;;3.73;2.00;;;15.10;99.90;;;;;;5055994;28;20642;-76
2022/07/08 04:47:43;;;;;;;8.47;1.30;;;15.10;99.90;;;;;;5038295;28;20190;-76
2022/07/08 04:50:09;;;;;;;5.20;1.50;;;15.10;99.90;;;;;;5056143;28;20191;-76
2022/07/08 04:52:34;;;;;;;6.17;1.60;;;15.10;99.90;;;;;;5055843;28;20195;-76
2022/07/08 04:55:00;;;;;;;3.90;1.37;;;15.10;99.90;;;;;;5037962;28;20178;-76
2022/07/08 04:57:26;;;;;;;10.10;1.57;;;15.10;99.90;;;;;;5056123;28;20233;-76
2022/07/08 04:59:51;;;;;;;5.43;1.70;;;15.20;99.90;;;;;;5055849;28;20176;-76
2022/07/08 05:02:17;;;;;;;11.60;1.80;;;15.20;99.90;;;;;;5037791;28;20195;-76
2022/07/08 05:04:42;;;;;;;12.10;1.93;;;15.20;99.90;;;;;;5055771;28;20557;-76
2022/07/08 05:07:08;;;;;;;5.63;1.50;;;15.20;99.90;;;;;;5055898;28;20661;-77
2022/07/08 05:09:33;;;;;;;4.20;1.27;;;15.30;99.90;;;;;;5037596;28;20206;-76
2022/07/08 05:11:59;;;;;;;8.07;1.50;;;15.30;99.90;;;;;;5055490;28;20171;-76
2022/07/08 05:14:24;;;;;;;6.17;1.77;;;15.30;99.90;;;;;;5055568;28;20183;-76
2022/07/08 05:16:50;;;;;;;6.97;1.63;;;15.30;99.90;;;;;;5055955;28;20172;-76
2022/07/08 05:19:15;;;;;;;5.77;1.57;;;15.30;99.90;;;;;;5055934;28;20536;-77
2022/07/08 05:21:41;;;;;;;7.63;1.37;;;15.30;99.90;;;;;;5037421;28;20199;-76
2022/07/08 05:24:07;;;;;;;4.97;1.40;;;15.30;99.90;;;;;;5055497;28;20217;-76
2022/07/08 05:26:33;;;;;;;8.00;1.50;;;15.20;99.90;;;;;;5055411;28;20168;-77
2022/07/08 05:28:59;;;;;;;3.73;1.20;;;15.20;99.90;;;;;;5055049;28;20595;-77
2022/07/08 05:31:25;;;;;;;5.50;1.40;;;15.20;99.90;;;;;;5037152;28;20207;-77
2022/07/08 05:33:50;;;;;;;4.13;1.20;;;15.10;99.90;;;;;;5037201;28;20188;-76
2022/07/08 05:36:16;;;;;;;6.13;1.30;;;15.10;99.90;;;;;;5055714;28;20171;-76
2022/07/08 05:38:41;;;;;;;7.80;1.63;;;15.10;99.90;;;;;;5055118;28;20246;-75
2022/07/08 05:41:07;;;;;;;6.67;1.30;;;15.10;99.90;;;;;;5055197;28;20263;-77
2022/07/08 05:43:32;;;;;;;7.37;1.57;;;15.10;99.90;;;;;;5056034;28;20215;-76
2022/07/08 05:45:58;;;;;;;7.83;1.33;;;15.00;99.90;;;;;;5055252;28;20176;-76
2022/07/08 05:48:24;;;;;;;8.13;1.30;;;15.00;99.90;;;;;;5054756;28;20194;-77
2022/07/08 05:50:50;;;;;;;3.03;1.10;;;15.00;99.90;;;;;;5055340;28;20202;-77
2022/07/08 05:53:16;;;;;;;4.50;1.67;;;15.10;99.90;;;;;;5036932;28;20191;-77
2022/07/08 05:55:43;;;;;;;4.67;1.27;;;15.10;99.90;;;;;;5036889;28;20258;-77
2022/07/08 05:58:08;;;;;;;6.17;1.40;;;15.10;99.90;;;;;;5054740;28;20167;-76
2022/07/08 06:00:34;;;;;;;6.73;1.33;;;15.10;99.90;;;;;;5036736;28;20271;-76
2022/07/08 06:02:59;;;;;;;5.23;1.47;;;15.10;99.90;;;;;;5054631;28;20569;-76
2022/07/08 06:05:25;;;;;;;5.73;1.20;;;15.10;99.90;;;;;;5055466;28;20180;-76
2022/07/08 06:07:51;;;;;;;5.57;1.40;;;15.10;99.90;;;;;;5037295;28;20259;-76
2022/07/08 06:10:17;;;;;;;8.37;1.77;;;15.20;99.90;;;;;;5055140;28;20657;-76
2022/07/08 06:12:42;;;;;;;6.20;1.70;;;15.20;99.90;;;;;;5037129;28;20192;-76
2022/07/08 06:15:13;;;;;;;2.93;1.17;;;15.20;99.90;;;;;;5037138;28;20187;-77
2022/07/08 06:17:39;;;;;;;6.07;1.43;;;15.30;99.90;;;;;;5037340;28;20630;-76
2022/07/08 06:20:06;;;;;;;3.87;1.40;;;15.30;99.90;;;;;;5055199;28;20175;-76
2022/07/08 06:22:31;;;;;;;2.43;1.00;;;15.40;99.90;;;;;;5036809;28;20575;-76
2022/07/08 06:24:57;;;;;;;6.07;1.43;;;15.40;99.90;;;;;;5036066;28;20322;-76
2022/07/08 06:27:22;;;;;;;6.30;1.33;;;15.40;99.90;;;;;;5054346;28;20236;-77
2022/07/08 06:29:48;;;;;;;5.23;1.27;;;15.50;99.90;;;;;;5053965;28;20293;-75
2022/07/08 06:32:14;;;;;;;4.83;1.63;;;15.50;99.90;;;;;;5035456;28;20200;-76
2022/07/08 06:34:40;;;;;;;6.10;1.50;;;15.50;99.90;;;;;;5053916;28;20168;-76
2022/07/08 06:37:05;;;;;;;7.07;1.40;;;15.50;99.90;;;;;;5053678;28;20245;-76
2022/07/08 06:39:31;;;;;;;6.63;1.50;;;15.60;99.90;;;;;;5053721;28;20178;-76
2022/07/08 06:41:56;;;;;;;7.27;1.53;;;15.60;99.90;;;;;;5053698;28;20171;-76
2022/07/08 06:44:22;;;;;;;5.43;1.57;;;15.60;99.90;;;;;;5053708;28;20155;-76
2022/07/08 06:46:47;;;;;;;5.87;1.70;;;15.70;99.90;;;;;;5035831;28;20172;-76
2022/07/08 06:49:13;;;;;;;8.57;1.50;;;15.70;99.90;;;;;;5053561;28;20180;-76
2022/07/08 06:51:39;;;;;;;3.90;1.17;;;15.70;99.90;;;;;;5053892;28;20164;-76
2022/07/08 06:56:48;;;;;;;4.50;1.37;;;15.80;99.90;;;;;;5054132;28;20171;-76
2022/07/08 06:59:14;;;;;;;3.53;1.30;;;15.80;99.90;;;;;;5053703;28;20172;-76
2022/07/08 07:01:39;;;;;;;7.43;1.20;;;15.90;99.90;;;;;;5035724;28;20176;-75
2022/07/08 07:04:05;;;;;;;5.33;1.40;;;15.80;99.90;;;;;;5053403;28;20196;-76
2022/07/08 07:06:30;;;;;;;2.77;1.20;;;15.80;99.90;;;;;;5035472;28;20164;-75
2022/07/08 07:08:56;;;;;;;9.70;1.37;;;15.90;99.90;;;;;;5053206;28;20254;-76
2022/07/08 07:11:21;;;;;;;5.43;1.70;;;16.00;99.90;;;;;;5053250;28;20206;-76
2022/07/08 07:13:47;;;;;;;6.93;1.83;;;16.00;99.90;;;;;;5053097;28;20195;-76
2022/07/08 07:16:14;;;;;;;3.47;1.20;;;16.10;99.90;;;;;;5053034;28;20707;-75
2022/07/08 07:18:40;;;;;;;7.23;1.70;;;16.10;99.90;;;;;;5052973;28;20198;-76
2022/07/08 07:21:05;;;;;;;3.53;1.00;;;16.30;99.90;;;;;;5035054;28;20171;-76
2022/07/08 07:23:31;;;;;;;4.97;1.50;;;16.40;99.90;;;;;;5052895;28;20192;-76
2022/07/08 07:25:57;;;;;;;3.37;1.30;;;16.50;99.90;;;;;;5053324;28;20210;-77
2022/07/08 07:28:23;;;;;;;7.53;1.10;;;16.70;99.90;;;;;;5053216;28;20731;-76
2022/07/08 07:30:49;;;;;;;6.43;1.77;;;16.70;99.90;;;;;;5052754;28;20187;-75
2022/07/08 07:33:14;;;;;;;4.90;1.73;;;16.70;99.90;;;;;;5034772;28;20242;-76
2022/07/08 07:35:40;;;;;;;3.70;1.50;;;16.70;99.90;;;;;;5052815;28;20172;-76
2022/07/08 07:38:07;;;;;;;9.03;2.90;;;16.70;99.90;;;;;;5053047;28;20225;-75
2022/07/08 07:40:32;;;;;;;7.23;2.60;;;16.70;99.90;;;;;;5052708;28;20709;-76
2022/07/08 07:42:58;;;;;;;3.63;1.83;;;16.70;99.90;;;;;;5051180;28;20215;-76
2022/07/08 07:45:23;;;;;;;6.17;1.47;;;16.80;99.90;;;;;;5034175;28;20278;-76
2022/07/08 07:47:49;;;;;;;7.90;1.20;;;16.90;99.90;;;;;;5034988;28;20179;-76
2022/07/08 07:50:14;;;;;;;5.93;1.30;;;16.90;99.90;;;;;;5052886;28;20287;-76
2022/07/08 07:52:40;;;;;;;2.03;1.10;;;17.00;99.90;;;;;;5053273;28;20545;-76
2022/07/08 07:55:06;;;;;;;4.40;1.17;;;17.10;99.90;;;;;;5035079;28;20198;-76
2022/07/08 07:57:32;;;;;;;3.67;1.53;;;17.20;99.90;;;;;;5034772;28;20179;-76
2022/07/08 07:59:57;;;;;;;5.93;1.60;;;17.10;99.90;;;;;;5034885;28;20175;-76
2022/07/08 08:02:23;;;;;;;4.07;1.43;;;17.20;99.90;;;;;;5052748;28;20206;-75
2022/07/08 08:04:48;;;;;;;8.13;1.40;;;17.30;99.90;;;;;;5034518;28;20221;-76
2022/07/08 08:07:14;;;;;;;6.70;1.30;;;17.30;99.90;;;;;;5052655;28;20296;-76
2022/07/08 08:09:39;;;;;;;5.93;1.30;;;17.30;99.90;;;;;;5034727;28;20203;-76
2022/07/08 08:12:05;;;;;;;3.47;1.60;;;17.20;99.90;;;;;;5035002;28;20265;-76
2022/07/08 08:14:31;;;;;;;3.93;1.33;;;17.10;99.90;;;;;;5052470;28;20168;-75
2022/07/08 08:16:56;;;;;;;12.27;1.67;;;17.30;99.90;;;;;;5052524;28;20251;-75
2022/07/08 08:19:22;;;;;;;4.77;1.70;;;17.30;99.90;;;;;;5052760;28;20642;-76
2022/07/08 08:21:47;;;;;;;6.10;1.37;;;17.30;99.90;;;;;;5034448;28;20238;-75
2022/07/08 08:24:13;;;;;;;6.30;1.47;;;17.30;99.90;;;;;;5052345;28;20517;-75
2022/07/08 08:26:38;;;;;;;8.13;1.60;;;17.40;99.90;;;;;;5052545;28;20172;-76
2022/07/08 08:29:04;;;;;;;4.70;1.33;;;17.40;99.90;;;;;;5052275;28;20172;-76
2022/07/08 08:31:29;;;;;;;5.20;1.63;;;17.40;99.90;;;;;;5052140;28;20226;-76
2022/07/08 08:33:55;;;;;;;4.17;1.40;;;17.50;99.90;;;;;;5034220;28;20187;-76
2022/07/08 08:36:23;;;;;;;6.13;1.30;;;17.60;99.90;;;;;;5052207;28;20646;-76
2022/07/08 08:38:50;;;;;;;6.70;1.43;;;17.60;99.90;;;;;;5052242;28;20168;-76
2022/07/08 08:41:15;;;;;;;4.97;1.23;;;17.60;99.90;;;;;;5052207;28;20217;-76
2022/07/08 08:43:41;;;;;;;5.77;1.50;;;17.70;99.90;;;;;;5051986;28;20215;-76
2022/07/08 08:46:07;;;;;;;4.60;1.33;;;17.90;99.90;;;;;;5052318;28;20164;-75
2022/07/08 08:48:38;;;;;;;5.43;1.40;;;18.00;99.90;;;;;;5052165;28;20522;-76
2022/07/08 08:51:07;;;;;;;7.10;1.33;;;18.10;99.90;;;;;;5052302;28;20278;-76
2022/07/08 08:53:41;;;;;;;3.20;1.20;;;18.10;99.90;;;;;;5051757;28;20282;-76
2022/07/08 08:56:14;;;;;;;4.13;1.10;;;18.10;99.90;;;;;;5038146;28;20485;-75
2022/07/08 08:58:42;;;;;;;3.73;1.43;;;18.30;99.90;;;;;;5037634;28;20182;-76
2022/07/08 09:01:08;;;;;;;3.27;1.30;;;18.30;99.90;;;;;;5055810;28;20575;-76
2022/07/08 09:03:35;;;;;;;7.00;1.47;;;18.40;99.90;;;;;;5055682;28;20238;-76
2022/07/08 09:06:01;;;;;;;4.73;1.37;;;18.50;99.90;;;;;;5037680;28;20190;-75
2022/07/08 09:08:27;;;;;;;3.63;1.40;;;18.50;99.90;;;;;;5055745;28;20172;-76
2022/07/08 09:10:52;;;;;;;4.00;1.37;;;18.60;99.90;;;;;;5037486;28;20222;-76
2022/07/08 09:13:19;;;;;;;5.87;1.40;;;18.60;99.90;;;;;;5055317;28;20561;-76
2022/07/08 09:15:47;;;;;;;6.43;1.67;;;18.70;99.90;;;;;;5037443;28;20183;-76
2022/07/08 09:18:14;;;;;;;5.37;1.17;;;18.70;99.90;;;;;;5055573;28;20255;-76
2022/07/08 09:20:48;;;;;;;7.70;1.30;;;18.80;99.90;;;;;;5055248;28;20184;-76
2022/07/08 09:23:22;;;;;;;4.27;1.43;;;19.00;99.90;;;;;;5055212;28;20222;-76
2022/07/08 09:25:50;;;;;;;7.33;1.50;;;19.10;99.90;;;;;;5055378;28;20175;-77
2022/07/08 09:28:27;;;;;;;7.93;1.33;;;19.10;99.90;;;;;;5055144;28;20184;-76
2022/07/08 09:30:57;;;;;;;5.03;1.03;;;19.00;99.90;;;;;;5055098;28;20195;-76
2022/07/08 09:33:26;;;;;;;4.60;1.20;;;19.00;99.90;;;;;;5055268;28;20183;-76
2022/07/08 09:35:53;;;;;;;4.47;1.30;;;19.10;99.90;;;;;;5055034;28;20182;-76
2022/07/08 09:38:19;;;;;;;5.07;1.50;;;19.00;99.90;;;;;;5054938;28;20233;-76
2022/07/08 09:41:02;;;;;;;6.83;1.83;;;19.00;99.90;;;;;;5037153;28;20206;-75
2022/07/08 09:43:29;;;;;;;4.00;1.20;;;19.10;99.90;;;;;;5036919;28;20218;-76
2022/07/08 09:46:03;;;;;;;2.90;1.20;;;19.20;99.90;;;;;;5036921;28;20186;-76
2022/07/08 09:48:29;;;;;;;6.40;1.50;;;19.30;99.90;;;;;;5037044;28;20178;-76
2022/07/08 09:50:55;;;;;;;4.53;1.10;;;19.30;99.90;;;;;;5054559;28;20195;-76
2022/07/08 09:53:24;;;;;;;9.50;1.37;;;19.40;99.90;;;;;;5054686;28;20195;-76
2022/07/08 09:55:52;;;;;;;3.17;1.20;;;19.50;95.40;;;;;;5054655;28;20167;-76
2022/07/08 09:58:20;;;;;;;5.93;1.50;;;19.50;72.60;;;;;;5054696;28;20164;-75
2022/07/08 10:00:47;;;;;;;5.17;1.37;;;19.60;77.60;;;;;;5036693;28;20264;-76
2022/07/08 10:03:13;;;;;;;3.53;1.03;;;19.80;26.30;;;;;;5054297;28;20666;-76
2022/07/08 10:05:40;;;;;;;5.90;1.20;;;19.80;11.60;;;;;;5036348;28;20225;-75
2022/07/08 10:08:07;;;;;;;4.37;1.10;;;20.00;10.40;;;;;;5036026;28;20180;-76
2022/07/08 10:10:33;;;;;;;9.40;1.80;;;20.10;1.00;;;;;;5054421;28;20191;-76
2022/07/08 10:12:59;;;;;;;9.33;2.17;;;20.10;1.00;;;;;;5054230;28;20271;-76
2022/07/08 10:15:27;;;;;;;4.77;1.40;;;20.20;1.00;;;;;;5036624;28;20546;-76
2022/07/08 10:17:54;;;;;;;7.27;1.43;;;20.30;99.90;;;;;;5054232;28;20194;-77
2022/07/08 10:20:23;;;;;;;2.53;1.30;;;20.30;99.90;;;;;;5036224;28;20179;-76
2022/07/08 10:22:51;;;;;;;3.03;0.80;;;20.40;99.90;;;;;;5036169;28;20195;-76
2022/07/08 10:25:20;;;;;;;2.33;0.77;;;20.50;99.90;;;;;;5054074;28;20172;-76
2022/07/08 10:27:46;;;;;;;2.57;1.00;;;20.50;99.90;;;;;;5054006;28;20175;-76
2022/07/08 10:30:16;;;;;;;2.90;0.97;;;20.70;99.90;;;;;;5036058;28;20209;-76
2022/07/08 10:32:46;;;;;;;6.90;1.27;;;20.70;99.90;;;;;;5035945;28;20283;-76
2022/07/08 10:35:18;;;;;;;3.40;1.30;;;20.70;99.90;;;;;;5054034;28;20172;-76
2022/07/08 10:37:58;;;;;;;4.27;1.30;;;20.70;99.90;;;;;;5054092;28;20156;-76
2022/07/08 10:40:42;;;;;;;7.50;2.37;;;20.70;99.90;;;;;;5053932;28;20178;-76
2022/07/08 10:43:19;;;;;;;4.53;1.17;;;20.60;99.90;;;;;;5053744;28;20302;-77
2022/07/08 10:46:01;;;;;;;6.60;1.47;;;20.80;99.90;;;;;;5053736;28;20216;-76
2022/07/08 10:48:28;;;;;;;7.50;1.37;;;20.80;99.90;;;;;;5035879;28;20206;-76
2022/07/08 10:50:55;;;;;;;4.40;1.57;;;20.80;99.90;;;;;;5035536;28;20673;-76
2022/07/08 10:53:21;;;;;;;4.47;1.40;;;20.70;99.90;;;;;;5053396;28;20180;-76
2022/07/08 10:55:47;;;;;;;1.70;0.80;;;20.70;99.90;;;;;;5053826;28;20174;-76
2022/07/08 10:58:12;;;;;;;3.97;1.13;;;20.90;99.90;;;;;;5053711;28;20167;-75
2022/07/08 11:00:39;;;;;;;6.10;1.57;;;21.10;99.90;;;;;;5035628;28;20649;-76
2022/07/08 11:03:08;;;;;;;6.63;1.30;;;21.10;99.90;;;;;;5053625;28;20695;-76
2022/07/08 11:05:38;;;;;;;6.60;1.73;;;21.00;99.90;;;;;;5035768;28;20179;-76
2022/07/08 11:08:18;;;;;;;4.63;1.33;;;21.00;99.90;;;;;;5035615;28;20191;-76
2022/07/08 11:10:45;;;;;;;4.30;1.53;;;20.90;99.90;;;;;;5053634;28;20237;-75
2022/07/08 11:13:11;;;;;;;9.40;1.60;;;21.00;99.90;;;;;;5035364;28;20807;-76
2022/07/08 11:15:37;;;;;;;7.30;1.60;;;21.00;99.90;;;;;;5053320;28;20243;-76
2022/07/08 11:18:03;;;;;;;8.37;2.00;;;21.10;99.90;;;;;;5053716;28;20176;-76
2022/07/08 11:20:31;;;;;;;7.63;1.10;;;21.00;99.90;;;;;;5053251;28;20260;-76
2022/07/08 11:22:56;;;;;;;8.70;1.20;;;21.10;99.90;;;;;;5053194;28;20187;-76
2022/07/08 11:25:22;;;;;;;6.73;1.30;;;21.00;99.90;;;;;;5053173;28;20259;-76
2022/07/08 11:27:48;;;;;;;3.63;1.10;;;20.90;99.90;;;;;;5053470;28;20245;-76
2022/07/08 11:30:16;;;;;;;6.17;1.10;;;21.10;99.90;;;;;;5053038;28;20275;-76
2022/07/08 11:32:43;;;;;;;4.13;0.90;;;21.10;99.90;;;;;;5053259;28;20191;-76
2022/07/08 11:35:09;;;;;;;6.80;1.33;;;21.10;99.90;;;;;;5053145;28;20644;-76
2022/07/08 11:37:41;;;;;;;4.80;1.23;;;21.20;99.90;;;;;;5053313;28;20191;-76
2022/07/08 11:40:08;;;;;;;3.67;1.00;;;21.10;99.90;;;;;;5053262;28;20168;-76
2022/07/08 11:45:21;;;;;;;4.80;1.20;;;21.30;99.90;;;;;;5032449;28;20669;-77
2022/07/08 11:47:49;;;;;;;5.57;1.73;;;21.40;99.90;;;;;;5032300;28;20183;-76
2022/07/08 11:50:14;;;;;;;2.50;0.97;;;21.60;99.90;;;;;;5015149;28;20238;-76
2022/07/08 11:52:40;;;;;;;9.20;1.10;;;21.60;99.90;;;;;;5033085;28;20160;-76
2022/07/08 11:55:07;;;;;;;2.93;1.20;;;21.70;99.90;;;;;;5033978;28;20246;-77
2022/07/08 11:57:39;;;;;;;2.83;1.30;;;21.90;99.90;;;;;;5034663;28;20172;-76
2022/07/08 12:00:05;;;;;;;5.20;1.43;;;22.00;99.90;;;;;;5033483;28;20161;-76
2022/07/08 12:02:36;;;;;;;2.77;0.77;;;22.00;99.90;;;;;;5015666;28;20259;-78
2022/07/08 12:05:07;;;;;;;5.83;1.30;;;22.00;99.90;;;;;;5015788;28;20196;-76
2022/07/08 12:07:33;;;;;;;5.43;1.23;;;21.90;99.90;;;;;;5033752;28;20526;-77
2022/07/08 12:10:05;;;;;;;3.13;1.23;;;22.00;99.90;;;;;;5033629;28;20196;-77
2022/07/08 12:12:33;;;;;;;3.30;1.33;;;22.00;99.90;;;;;;5015864;28;20175;-76
2022/07/08 12:15:16;;;;;;;2.83;1.10;;;22.10;99.90;;;;;;5033214;28;20199;-77
2022/07/08 12:17:54;;;;;;;6.43;1.40;;;22.10;99.90;;;;;;5033640;28;20149;-77
2022/07/08 12:20:31;;;;;;;4.63;1.20;;;22.00;99.90;;;;;;5033635;28;20168;-76
2022/07/08 12:22:56;;;;;;;3.37;1.10;;;21.90;99.90;;;;;;5015504;28;20183;-76
2022/07/08 12:25:22;;;;;;;4.57;1.20;;;22.10;99.90;;;;;;5033780;28;20212;-76
2022/07/08 12:27:56;;;;;;;4.83;1.53;;;22.10;99.90;;;;;;5033438;28;20195;-76
2022/07/08 12:30:27;;;;;;;5.30;1.57;;;22.10;99.90;;;;;;5035348;28;20242;-78
2022/07/08 12:32:57;;;;;;;6.43;1.43;;;22.20;99.90;;;;;;5019454;28;20173;-76
2022/07/08 12:35:30;;;;;;;4.33;1.27;;;22.10;99.90;;;;;;5019667;28;20169;-77
2022/07/08 12:38:06;;;;;;;3.13;1.23;;;22.30;99.90;;;;;;5019053;28;20169;-76
2022/07/08 12:40:40;;;;;;;5.10;1.47;;;22.40;99.90;;;;;;5037515;28;20165;-76
2022/07/08 12:43:08;;;;;;;5.97;2.37;;;22.40;99.90;;;;;;5036935;28;20258;-78
2022/07/08 12:45:34;;;;;;;5.10;1.00;;;22.40;99.90;;;;;;5036897;28;20161;-77
2022/07/08 12:48:00;;;;;;;4.53;1.00;;;22.50;99.90;;;;;;5019036;28;20693;-78
2022/07/08 12:50:27;;;;;;;3.50;1.23;;;22.70;99.90;;;;;;5017933;28;20199;-77
2022/07/08 12:52:53;;;;;;;3.57;0.90;;;22.80;99.90;;;;;;5037143;28;20196;-77